createdAt,value
2022-08-02T00:00:58.427Z,18.50
2022-08-02T00:03:25.936Z,18.40
2022-08-02T00:05:54.089Z,18.40
2022-08-02T00:08:22.667Z,18.30
2022-08-02T00:10:50.399Z,18.30
2022-08-02T00:13:17.998Z,18.30
2022-08-02T00:15:45.487Z,18.30
2022-08-02T00:18:12.982Z,18.30
2022-08-02T00:20:40.577Z,18.30
2022-08-02T00:23:08.092Z,18.20
2022-08-02T00:25:35.506Z,18.20
2022-08-02T00:28:27.024Z,18.30
2022-08-02T00:30:58.940Z,18.20
2022-08-02T00:34:05.317Z,18.20
2022-08-02T00:36:14.956Z,18.20
2022-08-02T00:38:43.119Z,18.20
2022-08-02T00:41:17.245Z,18.20
2022-08-02T00:43:46.609Z,18.20
2022-08-02T00:46:15.299Z,18.20
2022-08-02T00:48:43.206Z,18.10
2022-08-02T00:51:11.933Z,18.10
2022-08-02T00:53:39.805Z,18.10
2022-08-02T00:56:07.352Z,18.10
2022-08-02T00:58:35.176Z,18.20
2022-08-02T01:01:03.756Z,18.20
2022-08-02T01:03:31.424Z,18.10
2022-08-02T01:06:10.935Z,18.10
2022-08-02T01:08:40.160Z,18.10
2022-08-02T01:11:08.037Z,18.00
2022-08-02T01:13:35.575Z,18.00
2022-08-02T01:16:12.643Z,18.10
2022-08-02T01:18:45.723Z,18.10
2022-08-02T01:21:22.032Z,18.10
2022-08-02T01:24:18.131Z,18.00
2022-08-02T01:26:52.300Z,18.00
2022-08-02T01:29:40.023Z,18.00
2022-08-02T01:32:18.898Z,18.00
2022-08-02T01:34:56.553Z,18.00
2022-08-02T01:37:53.398Z,18.00
2022-08-02T01:40:30.650Z,18.00
2022-08-02T01:42:59.891Z,18.00
2022-08-02T01:45:33.236Z,18.00
2022-08-02T01:48:01.719Z,18.00
2022-08-02T01:50:34.048Z,18.00
2022-08-02T01:53:06.716Z,18.10
2022-08-02T01:55:58.142Z,18.10
2022-08-02T01:58:32.178Z,18.10
2022-08-02T02:01:01.417Z,18.00
2022-08-02T02:03:31.909Z,18.00
2022-08-02T02:06:03.489Z,18.00
2022-08-02T02:08:36.991Z,18.00
2022-08-02T02:12:11.939Z,18.00
2022-08-02T02:13:54.050Z,18.00
2022-08-02T02:16:22.953Z,18.00
2022-08-02T02:18:52.787Z,18.00
2022-08-02T02:21:20.692Z,18.00
2022-08-02T02:23:48.175Z,17.90
2022-08-02T02:26:29.548Z,17.90
2022-08-02T02:29:03.702Z,17.90
2022-08-02T02:31:37.649Z,18.00
2022-08-02T02:34:16.606Z,17.90
2022-08-02T02:36:49.944Z,17.90
2022-08-02T02:39:22.465Z,17.90
2022-08-02T02:41:51.630Z,17.90
2022-08-02T02:44:21.014Z,17.90
2022-08-02T02:46:51.273Z,17.90
2022-08-02T02:49:20.470Z,17.90
2022-08-02T02:51:48.646Z,17.90
2022-08-02T02:54:31.110Z,17.80
2022-08-02T02:57:05.177Z,17.80
2022-08-02T02:59:35.069Z,17.90
2022-08-02T03:02:03.558Z,17.90
2022-08-02T03:04:56.030Z,17.90
2022-08-02T03:07:19.471Z,17.90
2022-08-02T03:09:47.976Z,17.90
2022-08-02T03:12:30.226Z,17.90
2022-08-02T03:15:06.071Z,18.00
2022-08-02T03:17:41.702Z,18.00
2022-08-02T03:20:20.546Z,18.00
2022-08-02T03:22:48.436Z,18.00
2022-08-02T03:25:17.197Z,18.00
2022-08-02T03:27:44.913Z,18.00
2022-08-02T03:30:14.417Z,18.10
2022-08-02T03:32:45.150Z,18.10
2022-08-02T03:35:17.598Z,18.10
2022-08-02T03:37:53.350Z,18.20
2022-08-02T03:40:21.854Z,18.20
2022-08-02T03:42:50.563Z,18.20
2022-08-02T03:45:19.193Z,18.20
2022-08-02T03:47:47.082Z,18.20
2022-08-02T03:50:15.089Z,18.20
2022-08-02T03:52:43.295Z,18.20
2022-08-02T03:55:12.839Z,18.30
2022-08-02T03:57:42.106Z,18.30
2022-08-02T04:00:11.431Z,18.20
2022-08-02T04:02:39.370Z,18.30
2022-08-02T04:05:07.934Z,18.30
2022-08-02T04:08:03.486Z,18.30
2022-08-02T04:10:22.832Z,18.20
2022-08-02T04:12:50.619Z,18.30
2022-08-02T04:15:18.521Z,18.30
2022-08-02T04:17:53.409Z,18.30
2022-08-02T04:20:24.944Z,18.30
2022-08-02T04:23:01.765Z,18.40
2022-08-02T04:25:35.461Z,18.40
2022-08-02T04:28:16.732Z,18.40
2022-08-02T04:30:47.217Z,18.40
2022-08-02T04:33:15.700Z,18.30
2022-08-02T04:35:44.387Z,18.40
2022-08-02T04:38:15.328Z,18.40
2022-08-02T04:40:55.454Z,18.40
2022-08-02T04:43:23.492Z,18.40
2022-08-02T04:45:53.726Z,18.40
2022-08-02T04:48:22.071Z,18.40
2022-08-02T04:50:49.706Z,18.40
2022-08-02T04:53:17.942Z,18.40
2022-08-02T04:55:45.620Z,18.40
2022-08-02T04:58:38.798Z,18.40
2022-08-02T05:01:01.643Z,18.50
2022-08-02T05:03:29.244Z,18.40
2022-08-02T05:05:56.651Z,18.50
2022-08-02T05:08:24.137Z,18.50
2022-08-02T05:10:51.708Z,18.50
2022-08-02T05:13:19.169Z,18.60
2022-08-02T05:15:50.514Z,18.60
2022-08-02T05:18:18.523Z,18.70
2022-08-02T05:20:46.066Z,18.70
2022-08-02T05:23:13.718Z,18.80
2022-08-02T05:25:41.152Z,18.80
2022-08-02T05:28:11.619Z,18.90
2022-08-02T05:30:40.539Z,18.90
2022-08-02T05:33:08.300Z,18.90
2022-08-02T05:35:35.979Z,18.90
2022-08-02T05:38:03.561Z,19.00
2022-08-02T05:40:31.265Z,19.00
2022-08-02T05:42:58.883Z,19.10
2022-08-02T05:45:26.433Z,19.30
2022-08-02T05:47:53.835Z,19.40
2022-08-02T05:50:21.976Z,19.50
2022-08-02T05:53:03.534Z,19.70
2022-08-02T05:55:57.143Z,19.80
2022-08-02T05:58:41.162Z,19.90
2022-08-02T06:01:13.825Z,19.90
2022-08-02T06:03:52.214Z,19.90
2022-08-02T06:06:25.144Z,20.00
2022-08-02T06:09:03.204Z,20.00
2022-08-02T06:12:01.348Z,20.10
2022-08-02T06:14:34.091Z,20.10
2022-08-02T06:17:05.480Z,20.00
2022-08-02T06:19:47.067Z,20.00
2022-08-02T06:22:32.270Z,20.20
2022-08-02T06:25:03.761Z,20.30
2022-08-02T06:27:32.000Z,20.50
2022-08-02T06:29:59.580Z,20.50
2022-08-02T06:32:28.464Z,20.60
2022-08-02T06:34:55.912Z,20.50
2022-08-02T06:37:59.322Z,20.50
2022-08-02T06:41:14.944Z,20.50
2022-08-02T06:44:13.688Z,20.40
2022-08-02T06:47:11.162Z,20.50
2022-08-02T06:49:52.599Z,20.60
2022-08-02T06:52:31.435Z,20.60
2022-08-02T06:55:00.914Z,20.70
2022-08-02T06:57:29.296Z,20.80
2022-08-02T06:59:57.142Z,20.70
2022-08-02T07:02:24.893Z,20.80
2022-08-02T07:04:52.423Z,20.70
2022-08-02T07:07:20.084Z,20.70
2022-08-02T07:09:56.512Z,20.80
2022-08-02T07:12:33.658Z,20.90
2022-08-02T07:15:06.573Z,20.90
2022-08-02T07:17:34.694Z,20.70
2022-08-02T07:20:02.605Z,20.60
2022-08-02T07:22:30.207Z,20.60
2022-08-02T07:24:59.459Z,20.60
2022-08-02T07:27:27.648Z,20.80
2022-08-02T07:29:55.827Z,21.00
2022-08-02T07:32:26.857Z,21.20
2022-08-02T07:34:55.263Z,21.40
2022-08-02T07:37:53.997Z,21.70
2022-08-02T07:40:15.044Z,21.80
2022-08-02T07:42:48.177Z,22.00
2022-08-02T07:45:15.722Z,21.90
2022-08-02T07:47:44.907Z,21.80
2022-08-02T07:50:14.607Z,21.90
2022-08-02T07:52:43.494Z,21.80
2022-08-02T07:55:12.277Z,21.80
2022-08-02T07:57:45.796Z,21.80
2022-08-02T08:00:16.293Z,21.80
2022-08-02T08:02:45.264Z,22.00
2022-08-02T08:05:12.915Z,22.10
2022-08-02T08:07:40.445Z,22.10
2022-08-02T08:10:08.910Z,22.20
2022-08-02T08:12:36.751Z,22.10
2022-08-02T08:15:05.004Z,22.20
2022-08-02T08:17:32.781Z,22.30
2022-08-02T08:20:01.082Z,22.50
2022-08-02T08:22:28.517Z,22.50
2022-08-02T08:24:55.992Z,22.50
2022-08-02T08:27:23.661Z,22.50
2022-08-02T08:29:51.237Z,22.50
2022-08-02T08:32:19.863Z,22.50
2022-08-02T08:34:47.997Z,22.70
2022-08-02T08:37:17.906Z,22.90
2022-08-02T08:39:57.627Z,22.90
2022-08-02T08:42:27.294Z,22.90
2022-08-02T08:44:57.217Z,22.90
2022-08-02T08:47:34.907Z,22.90
2022-08-02T08:50:06.949Z,22.90
2022-08-02T08:52:56.878Z,23.10
2022-08-02T08:55:26.433Z,23.20
2022-08-02T08:57:55.639Z,23.30
2022-08-02T09:00:23.129Z,23.00
2022-08-02T09:02:50.803Z,23.10
2022-08-02T09:05:18.725Z,23.20
2022-08-02T09:07:53.156Z,23.30
2022-08-02T09:10:47.831Z,23.40
2022-08-02T09:13:38.048Z,23.30
2022-08-02T09:16:14.032Z,23.20
2022-08-02T09:18:47.675Z,23.30
2022-08-02T09:21:17.156Z,23.20
2022-08-02T09:23:50.365Z,23.30
2022-08-02T09:26:18.998Z,23.50
2022-08-02T09:28:59.712Z,23.50
2022-08-02T09:31:27.974Z,23.60
2022-08-02T09:33:59.762Z,23.70
2022-08-02T09:36:37.329Z,23.80
2022-08-02T09:39:06.894Z,23.80
2022-08-02T09:41:36.725Z,23.70
2022-08-02T09:44:07.185Z,23.50
2022-08-02T09:46:38.537Z,23.40
2022-08-02T09:49:17.905Z,23.50
2022-08-02T09:51:53.484Z,23.60
2022-08-02T09:54:25.892Z,23.70
2022-08-02T09:56:55.811Z,23.60
2022-08-02T09:59:27.307Z,23.50
2022-08-02T10:01:58.923Z,23.20
2022-08-02T10:04:34.420Z,22.80
2022-08-02T10:07:13.059Z,22.90
2022-08-02T10:09:46.452Z,22.80
2022-08-02T10:12:15.766Z,22.80
2022-08-02T10:14:44.102Z,23.10
2022-08-02T10:17:12.266Z,23.40
2022-08-02T10:20:01.977Z,23.50
2022-08-02T10:22:28.176Z,23.70
2022-08-02T10:24:55.908Z,23.60
2022-08-02T10:27:25.943Z,23.60
2022-08-02T10:29:57.869Z,23.50
2022-08-02T10:32:33.179Z,23.80
2022-08-02T10:35:29.582Z,24.20
2022-08-02T10:38:03.854Z,24.40
2022-08-02T10:40:44.452Z,24.50
2022-08-02T10:43:13.977Z,24.70
2022-08-02T10:45:41.530Z,23.90
2022-08-02T10:48:14.768Z,23.70
2022-08-02T10:50:50.904Z,23.80
2022-08-02T10:53:32.596Z,24.10
2022-08-02T10:56:03.355Z,24.40
2022-08-02T10:58:32.710Z,25.00
2022-08-02T11:01:26.926Z,25.30
2022-08-02T11:04:10.052Z,25.40
2022-08-02T11:07:07.929Z,25.80
2022-08-02T11:09:35.729Z,26.80
2022-08-02T11:12:11.435Z,27.90
2022-08-02T11:14:41.353Z,28.70
2022-08-02T11:17:11.965Z,28.30
2022-08-02T11:20:13.275Z,27.40
2022-08-02T11:22:41.391Z,26.80
2022-08-02T11:25:24.209Z,27.30
2022-08-02T11:28:00.534Z,27.70
2022-08-02T11:30:28.100Z,27.20
2022-08-02T11:32:57.460Z,27.20
2022-08-02T11:35:37.232Z,28.20
2022-08-02T11:38:20.017Z,29.60
2022-08-02T11:40:49.076Z,30.60
2022-08-02T11:43:18.545Z,30.70
2022-08-02T11:45:46.208Z,30.40
2022-08-02T11:48:13.851Z,29.70
2022-08-02T11:50:41.292Z,28.60
2022-08-02T11:53:16.950Z,27.80
2022-08-02T11:55:44.486Z,27.40
2022-08-02T11:58:12.097Z,26.70
2022-08-02T12:00:39.757Z,26.20
2022-08-02T12:03:08.448Z,25.70
2022-08-02T12:06:04.892Z,25.30
2022-08-02T12:08:26.186Z,25.20
2022-08-02T12:10:54.433Z,25.10
2022-08-02T12:13:22.008Z,25.00
2022-08-02T12:15:49.553Z,24.80
2022-08-02T12:18:37.878Z,24.60
2022-08-02T12:21:22.664Z,24.60
2022-08-02T12:24:00.377Z,24.80
2022-08-02T12:26:30.137Z,24.80
2022-08-02T12:28:59.633Z,24.90
2022-08-02T12:31:55.864Z,25.00
2022-08-02T12:34:32.015Z,25.30
2022-08-02T12:37:11.503Z,25.90
2022-08-02T12:39:49.962Z,28.30
2022-08-02T12:42:17.471Z,29.20
2022-08-02T12:44:59.101Z,28.80
2022-08-02T12:47:32.189Z,28.10
2022-08-02T12:50:20.907Z,27.60
2022-08-02T12:52:49.800Z,27.10
2022-08-02T12:55:17.228Z,27.60
2022-08-02T12:57:53.691Z,29.10
2022-08-02T13:00:32.859Z,30.30
2022-08-02T13:03:01.085Z,31.50
2022-08-02T13:05:57.495Z,32.10
2022-08-02T13:08:18.708Z,32.10
2022-08-02T13:10:46.369Z,31.40
2022-08-02T13:13:13.993Z,30.50
2022-08-02T13:15:50.324Z,29.50
2022-08-02T13:18:18.625Z,28.70
2022-08-02T13:20:46.977Z,29.10
2022-08-02T13:23:21.506Z,29.70
2022-08-02T13:25:52.445Z,30.20
2022-08-02T13:28:20.952Z,30.20
2022-08-02T13:30:49.283Z,30.60
2022-08-02T13:33:17.566Z,31.60
2022-08-02T13:35:46.346Z,32.60
2022-08-02T13:38:13.856Z,33.40
2022-08-02T13:41:04.727Z,32.80
2022-08-02T13:43:52.618Z,32.20
2022-08-02T13:46:29.323Z,30.90
2022-08-02T13:48:57.516Z,29.90
2022-08-02T13:51:25.013Z,29.50
2022-08-02T13:53:52.587Z,29.80
2022-08-02T13:56:20.186Z,31.00
2022-08-02T13:59:26.324Z,32.10
2022-08-02T14:01:52.819Z,33.30
2022-08-02T14:04:20.523Z,33.90
2022-08-02T14:06:48.812Z,33.70
2022-08-02T14:09:17.138Z,32.80
2022-08-02T14:11:46.025Z,32.10
2022-08-02T14:14:16.406Z,32.40
2022-08-02T14:16:45.728Z,33.00
2022-08-02T14:19:16.350Z,33.60
2022-08-02T14:21:48.718Z,34.30
2022-08-02T14:24:17.890Z,34.80
2022-08-02T14:26:45.963Z,34.90
2022-08-02T14:29:15.061Z,35.00
2022-08-02T14:31:44.794Z,34.90
2022-08-02T14:34:15.637Z,34.30
2022-08-02T14:36:43.203Z,34.30
2022-08-02T14:39:15.035Z,34.40
2022-08-02T14:41:59.685Z,34.70
2022-08-02T14:44:31.279Z,34.70
2022-08-02T14:46:58.849Z,34.80
2022-08-02T14:49:27.216Z,34.30
2022-08-02T14:51:55.423Z,33.50
2022-08-02T14:54:27.997Z,32.70
2022-08-02T14:57:03.247Z,32.90
2022-08-02T14:59:31.223Z,33.20
2022-08-02T15:01:59.590Z,33.50
2022-08-02T15:04:27.266Z,33.30
2022-08-02T15:06:55.286Z,32.90
2022-08-02T15:09:22.919Z,32.30
2022-08-02T15:11:50.593Z,32.00
2022-08-02T15:14:22.050Z,31.70
2022-08-02T15:16:58.114Z,31.60
2022-08-02T15:19:51.228Z,31.70
2022-08-02T15:22:19.151Z,32.00
2022-08-02T15:24:48.842Z,32.00
2022-08-02T15:27:17.023Z,32.10
2022-08-02T15:29:46.570Z,32.50
2022-08-02T15:32:17.361Z,33.00
2022-08-02T15:34:45.626Z,33.20
2022-08-02T15:37:13.274Z,32.80
2022-08-02T15:39:40.780Z,32.60
2022-08-02T15:42:08.703Z,32.60
2022-08-02T15:44:36.272Z,32.70
2022-08-02T15:47:06.845Z,33.00
2022-08-02T15:49:37.077Z,33.20
2022-08-02T15:52:08.344Z,33.50
2022-08-02T15:54:35.803Z,33.70
2022-08-02T15:57:03.411Z,33.60
2022-08-02T15:59:30.944Z,33.60
2022-08-02T16:01:58.529Z,33.40
2022-08-02T16:04:26.221Z,33.20
2022-08-02T16:06:53.637Z,32.90
2022-08-02T16:09:21.187Z,32.70
2022-08-02T16:11:48.640Z,32.80
2022-08-02T16:14:16.156Z,32.70
2022-08-02T16:16:44.937Z,32.40
2022-08-02T16:19:30.669Z,32.10
2022-08-02T16:22:00.025Z,31.90
2022-08-02T16:24:27.634Z,31.80
2022-08-02T16:26:55.223Z,31.60
2022-08-02T16:29:22.795Z,31.40
2022-08-02T16:31:50.419Z,31.40
2022-08-02T16:34:18.516Z,31.40
2022-08-02T16:36:46.725Z,31.30
2022-08-02T16:39:14.241Z,31.00
2022-08-02T16:41:51.146Z,30.60
2022-08-02T16:44:27.659Z,30.10
2022-08-02T16:50:06.923Z,29.90
2022-08-02T16:52:33.905Z,29.60
2022-08-02T16:55:01.546Z,29.30
2022-08-02T16:57:42.786Z,29.10
2022-08-02T17:00:12.685Z,29.00
2022-08-02T17:02:40.322Z,28.70
2022-08-02T17:05:13.832Z,28.50
2022-08-02T17:08:08.662Z,28.30
2022-08-02T17:10:31.682Z,28.30
2022-08-02T17:13:10.890Z,28.30
2022-08-02T17:16:07.576Z,28.20
2022-08-02T17:18:29.611Z,28.20
2022-08-02T17:20:57.235Z,28.00
2022-08-02T17:24:04.076Z,27.80
2022-08-02T17:26:13.316Z,27.70
2022-08-02T17:29:03.791Z,27.50
2022-08-02T17:31:30.201Z,27.20
2022-08-02T17:34:10.643Z,26.90
2022-08-02T17:36:38.751Z,26.60
2022-08-02T17:39:07.283Z,26.40
2022-08-02T17:41:37.929Z,26.10
2022-08-02T17:44:37.306Z,25.80
2022-08-02T17:47:06.683Z,25.60
2022-08-02T17:49:37.204Z,25.40
2022-08-02T17:52:49.173Z,25.20
2022-08-02T17:54:59.623Z,24.90
2022-08-02T17:57:55.709Z,24.70
2022-08-02T18:00:15.247Z,24.50
2022-08-02T18:02:44.213Z,24.40
2022-08-02T18:05:20.645Z,24.20
2022-08-02T18:07:52.066Z,24.10
2022-08-02T18:10:23.196Z,23.90
2022-08-02T18:12:50.829Z,23.80
2022-08-02T18:15:20.285Z,23.70
2022-08-02T18:17:47.876Z,23.60
2022-08-02T18:20:17.983Z,23.50
2022-08-02T18:22:46.383Z,23.40
2022-08-02T18:25:37.784Z,23.30
2022-08-02T18:28:10.520Z,23.20
2022-08-02T18:30:37.994Z,23.10
2022-08-02T18:33:58.786Z,23.00
2022-08-02T18:35:55.721Z,23.00
2022-08-02T18:38:26.749Z,22.80
2022-08-02T18:40:54.431Z,22.80
2022-08-02T18:46:15.839Z,22.60
2022-08-02T18:48:46.857Z,22.50
2022-08-02T18:51:16.154Z,22.50
2022-08-02T18:53:51.299Z,22.40
2022-08-02T18:56:24.777Z,22.30
2022-08-02T18:58:54.511Z,22.20
2022-08-02T19:01:32.282Z,22.20
2022-08-02T19:04:04.346Z,22.10
2022-08-02T19:06:32.214Z,22.00
2022-08-02T19:09:05.477Z,21.90
2022-08-02T19:11:40.961Z,21.80
2022-08-02T19:14:09.091Z,21.70
2022-08-02T19:16:38.139Z,21.70
2022-08-02T19:19:06.885Z,21.60
2022-08-02T19:22:18.342Z,21.60
2022-08-02T19:24:22.137Z,21.60
2022-08-02T19:26:51.901Z,21.60
2022-08-02T19:29:24.997Z,21.50
2022-08-02T19:31:59.658Z,21.40
2022-08-02T19:34:27.947Z,21.30
2022-08-02T19:36:55.408Z,21.10
2022-08-02T19:39:23.002Z,21.00
2022-08-02T19:41:54.459Z,20.80
2022-08-02T19:44:29.244Z,20.80
2022-08-02T19:46:57.211Z,20.80
2022-08-02T19:49:39.816Z,20.90
2022-08-02T19:52:20.324Z,20.90
2022-08-02T19:54:55.596Z,20.80
2022-08-02T19:57:24.935Z,20.80
2022-08-02T19:59:54.038Z,20.80
2022-08-02T20:02:21.886Z,20.70
2022-08-02T20:04:50.225Z,20.60
2022-08-02T20:07:49.847Z,20.40
2022-08-02T20:10:11.081Z,20.30
2022-08-02T20:12:42.535Z,20.20
2022-08-02T20:15:14.702Z,20.30
2022-08-02T20:17:47.631Z,20.20
2022-08-02T20:20:17.710Z,20.10
2022-08-02T20:23:32.861Z,20.10
2022-08-02T20:25:54.102Z,20.10
2022-08-02T20:28:22.499Z,20.10
2022-08-02T20:30:50.354Z,20.20
2022-08-02T20:33:21.586Z,20.20
2022-08-02T20:35:53.352Z,20.30
2022-08-02T20:38:25.087Z,20.30
2022-08-02T20:40:57.582Z,20.30
2022-08-02T20:43:31.521Z,20.30
2022-08-02T20:46:03.505Z,20.20
2022-08-02T20:48:31.401Z,20.20
2022-08-02T20:50:58.998Z,20.20
2022-08-02T20:53:29.803Z,20.20
2022-08-02T20:55:57.949Z,20.00
2022-08-02T20:58:26.894Z,20.10
2022-08-02T21:00:59.219Z,20.10
2022-08-02T21:03:32.218Z,20.00
2022-08-02T21:06:08.064Z,20.00
2022-08-02T21:08:35.739Z,20.00
2022-08-02T21:11:09.356Z,20.00
2022-08-02T21:13:46.471Z,20.00
2022-08-02T21:16:18.997Z,20.00
2022-08-02T21:18:51.497Z,20.10
2022-08-02T21:21:19.020Z,19.90
2022-08-02T21:23:48.826Z,19.80
2022-08-02T21:26:25.932Z,19.80
2022-08-02T21:28:56.343Z,19.80
2022-08-02T21:31:24.214Z,19.70
2022-08-02T21:34:00.457Z,19.70
2022-08-02T21:36:31.830Z,19.60
2022-08-02T21:39:05.843Z,19.60
2022-08-02T21:41:46.631Z,19.60
2022-08-02T21:44:20.041Z,19.50
2022-08-02T21:46:50.065Z,19.40
2022-08-02T21:49:20.134Z,19.40
2022-08-02T21:51:49.177Z,19.40
2022-08-02T21:54:21.758Z,19.40
2022-08-02T21:56:52.055Z,19.40
2022-08-02T21:59:26.132Z,19.30
2022-08-02T22:01:56.808Z,19.30
2022-08-02T22:04:26.244Z,19.30
2022-08-02T22:06:55.462Z,19.30
2022-08-02T22:09:43.726Z,19.30
2022-08-02T22:12:17.758Z,19.30
2022-08-02T22:14:54.263Z,19.30
2022-08-02T22:17:51.123Z,19.30
2022-08-02T22:20:15.471Z,19.20
2022-08-02T22:22:46.000Z,19.20
2022-08-02T22:25:27.268Z,19.20
2022-08-02T22:28:35.652Z,19.20
2022-08-02T22:30:53.069Z,19.10
2022-08-02T22:33:42.355Z,19.00
2022-08-02T22:36:15.234Z,19.00
2022-08-02T22:38:44.848Z,18.90
2022-08-02T22:41:13.993Z,18.90
2022-08-02T22:43:42.585Z,18.90
2022-08-02T22:46:15.272Z,18.90
2022-08-02T22:48:44.047Z,18.80
2022-08-02T22:51:12.580Z,18.80
2022-08-02T22:53:42.124Z,18.80
2022-08-02T22:56:11.337Z,18.70
2022-08-02T22:58:48.665Z,29.80
2022-08-02T22:58:57.041Z,22.70
2022-08-02T22:59:10.631Z,18.70
2022-08-02T23:01:26.777Z,18.70
2022-08-02T23:03:54.280Z,18.60
2022-08-02T23:06:22.893Z,18.60
2022-08-02T23:08:50.934Z,18.60
2022-08-02T23:11:18.498Z,18.60
2022-08-02T23:13:45.988Z,18.60
2022-08-02T23:16:37.569Z,18.60
2022-08-02T23:19:24.178Z,18.70
2022-08-02T23:22:02.757Z,18.70
2022-08-02T23:24:33.753Z,18.60
2022-08-02T23:27:01.575Z,18.60
2022-08-02T23:29:29.262Z,18.50
2022-08-02T23:31:56.915Z,18.50
2022-08-02T23:34:26.724Z,18.50
2022-08-02T23:36:54.400Z,18.50
2022-08-02T23:39:22.024Z,18.40
2022-08-02T23:41:54.730Z,18.40
2022-08-02T23:44:26.889Z,18.40
2022-08-02T23:46:56.139Z,18.30
2022-08-02T23:49:24.624Z,18.30
2022-08-02T23:51:52.589Z,18.30
2022-08-02T23:54:20.469Z,18.30
2022-08-02T23:56:47.992Z,18.30
2022-08-02T23:59:15.867Z,18.30
